Inglewood, Florida
Current Conditions -  °F | °C
As of 6:15 AM on Sunday 23 Nov 2014 (Local Time) from KVNC Reporting Station
Few Clouds Few Clouds  
Wind Chill: 23°   Ceiling: Unl
Heat Index: 23°   Visibility: 10mi
Dew Point: 22°   Wind: 14mph
Humidity: 94%   Direction: 130°SE
Pressure: 29.99"   Gusts: 21mph
Location:  26.9253°N, 82.3009°W
Report Text: KVNC 231115Z AUTO 13012G18KT 10SM FEW009 23/22 A2999 RMK AO2 TSNO
Loading
Personal Weather Stations






























Interactive Weather Map New forecast layout! Learn more

10-Day Weather Forecast

Advertisements
Track Severe Weather on mobile